Time;durP1;ratioP1;P1;durP2;ratioP2;P2;SDS_P1;SDS_P2;PMS_P1;PMS_P2;Temp;Humidity;BMP_temperature;BMP_pressure;BME280_temperature;BME280_humidity;BME280_pressure;Samples;Min_cycle;Max_cycle;Signal;HPM_P1;HPM_P2
2023/10/10 00:00:55;;;;;;;20.42;11.13;;;22.30;71.70;;;;;;6246357;23;19996;-80
2023/10/10 00:03:27;;;;;;;16.40;10.57;;;22.20;71.30;;;;;;6246314;23;20060;-79
2023/10/10 00:05:55;;;;;;;20.75;10.50;;;22.20;71.30;;;;;;6219163;23;20091;-81
2023/10/10 00:08:27;;;;;;;15.05;10.55;;;22.10;70.90;;;;;;6244049;22;20419;-80
2023/10/10 00:10:55;;;;;;;16.02;10.13;;;22.10;70.50;;;;;;6216184;23;20056;-81
2023/10/10 00:13:23;;;;;;;18.52;9.70;;;22.10;70.00;;;;;;6215738;23;20022;-81
2023/10/10 00:15:55;;;;;;;17.05;10.90;;;21.90;69.60;;;;;;6216384;23;20007;-79
2023/10/10 00:18:22;;;;;;;17.52;11.00;;;21.90;69.70;;;;;;6215433;23;20279;-83
2023/10/10 00:23:47;;;;;;;18.77;10.52;;;21.70;69.80;;;;;;6181388;23;20015;-81
2023/10/10 00:26:14;;;;;;;18.48;10.30;;;21.70;70.10;;;;;;6215756;23;20001;-80
2023/10/10 00:28:44;;;;;;;17.80;10.65;;;21.70;70.30;;;;;;6216143;23;20068;-80
2023/10/10 00:31:13;;;;;;;16.75;11.30;;;21.70;71.00;;;;;;6215824;23;20011;-81
2023/10/10 00:33:40;;;;;;;27.08;10.85;;;21.70;70.00;;;;;;6220284;23;20275;-80
2023/10/10 00:36:12;;;;;;;16.40;10.80;;;21.80;70.10;;;;;;6218533;23;20024;-80
2023/10/10 00:38:38;;;;;;;20.15;10.90;;;21.70;70.30;;;;;;6215611;23;20017;-81
2023/10/10 00:41:10;;;;;;;15.15;10.13;;;21.60;70.50;;;;;;6215892;23;20000;-80
2023/10/10 00:43:36;;;;;;;18.38;11.00;;;21.60;70.80;;;;;;6216469;23;20099;-80
2023/10/10 00:46:04;;;;;;;20.77;11.00;;;21.60;70.90;;;;;;6221036;23;20355;-79
2023/10/10 00:48:32;;;;;;;16.83;9.88;;;21.60;70.50;;;;;;6230833;23;20338;-79
2023/10/10 00:51:09;;;;;;;19.83;11.38;;;21.60;70.90;;;;;;6228523;23;20065;-79
2023/10/10 00:53:36;;;;;;;18.95;10.73;;;21.70;70.90;;;;;;6217330;23;20011;-80
2023/10/10 00:56:06;;;;;;;16.02;11.02;;;21.70;70.40;;;;;;6217219;23;20048;-80
2023/10/10 00:58:36;;;;;;;21.80;11.52;;;21.70;70.40;;;;;;6229573;23;20039;-79
2023/10/10 01:01:10;;;;;;;18.60;11.15;;;21.70;70.50;;;;;;6227583;23;20001;-79
2023/10/10 01:03:43;;;;;;;17.02;10.95;;;21.60;70.30;;;;;;6215521;23;20080;-80
2023/10/10 01:06:24;;;;;;;19.63;12.27;;;21.70;70.70;;;;;;6215578;23;20072;-81
2023/10/10 01:08:58;;;;;;;17.13;11.32;;;21.70;70.40;;;;;;6215835;23;20044;-81
2023/10/10 01:11:24;;;;;;;;;;;21.60;70.80;;;;;;6215751;23;20327;-80
2023/10/10 01:13:52;;;;;;;18.35;11.48;;;21.60;70.90;;;;;;6190046;23;19919;-80
2023/10/10 01:16:23;;;;;;;20.67;11.35;;;21.50;71.00;;;;;;6214838;23;20143;-79
2023/10/10 01:18:54;;;;;;;16.38;11.43;;;21.50;71.20;;;;;;6214705;23;20012;-81
2023/10/10 01:21:29;;;;;;;23.05;12.27;;;21.50;72.00;;;;;;6215012;23;20411;-80
2023/10/10 01:23:58;;;;;;;21.63;11.82;;;21.50;71.80;;;;;;6215694;23;20012;-81
2023/10/10 01:26:28;;;;;;;19.73;12.00;;;21.40;72.10;;;;;;6215393;23;20182;-80
2023/10/10 01:28:54;;;;;;;20.95;10.70;;;21.40;72.20;;;;;;6215538;23;20009;-80
2023/10/10 01:31:19;;;;;;;19.83;11.32;;;21.30;72.30;;;;;;6215173;23;20472;-80
2023/10/10 01:33:49;;;;;;;18.77;11.05;;;21.30;72.40;;;;;;6214732;23;20098;-77
2023/10/10 01:36:22;;;;;;;18.83;10.55;;;21.20;72.80;;;;;;6214913;23;20004;-81
2023/10/10 01:38:59;;;;;;;16.30;11.20;;;21.20;72.70;;;;;;6214857;23;20147;-80
2023/10/10 01:41:48;;;;;;;20.08;11.18;;;21.20;72.80;;;;;;6214972;23;20000;-81
2023/10/10 01:44:23;;;;;;;18.83;10.75;;;21.20;72.30;;;;;;6188600;23;20032;-80
2023/10/10 01:46:53;;;;;;;18.65;10.70;;;21.10;72.40;;;;;;6216112;23;20316;-80
2023/10/10 01:49:25;;;;;;;22.25;10.52;;;21.10;72.00;;;;;;6215068;23;20429;-81
2023/10/10 01:51:55;;;;;;;18.15;10.48;;;21.10;72.20;;;;;;6188219;23;20000;-79
2023/10/10 01:54:23;;;;;;;17.83;10.68;;;21.10;71.80;;;;;;6215347;23;20000;-81
2023/10/10 01:56:51;;;;;;;19.77;10.85;;;21.10;71.60;;;;;;6215849;23;20052;-81
2023/10/10 01:59:19;;;;;;;21.67;10.52;;;21.10;71.50;;;;;;6232704;23;19997;-79
2023/10/10 02:01:49;;;;;;;21.30;11.32;;;21.10;71.50;;;;;;6230415;23;20039;-79
2023/10/10 02:04:21;;;;;;;15.10;9.95;;;21.00;71.50;;;;;;6215595;23;20334;-80
2023/10/10 02:06:47;;;;;;;19.92;11.05;;;21.10;71.60;;;;;;6215252;23;20012;-81
2023/10/10 02:09:34;;;;;;;20.38;11.20;;;21.00;71.30;;;;;;6214647;23;20434;-81
2023/10/10 02:12:08;;;;;;;23.23;10.43;;;21.00;71.60;;;;;;6214367;23;20473;-80
2023/10/10 02:14:34;;;;;;;20.60;10.15;;;21.00;71.80;;;;;;6215006;23;20450;-79
2023/10/10 02:17:08;;;;;;;18.15;11.00;;;21.00;71.40;;;;;;6215450;23;20091;-80
2023/10/10 02:19:40;;;;;;;16.15;10.50;;;21.10;71.40;;;;;;6188283;23;20385;-83
2023/10/10 02:27:54;;;;;;;19.58;10.70;;;21.10;71.60;;;;;;6216893;23;20113;-78
2023/10/10 02:30:36;;;;;;;20.48;9.75;;;21.10;71.40;;;;;;6218299;23;20487;-78
2023/10/10 02:35:57;;;;;;;19.10;10.18;;;21.20;71.20;;;;;;6217034;23;20008;-81
2023/10/10 02:38:39;;;;;;;15.70;10.75;;;21.10;70.50;;;;;;6190212;23;20529;-81
2023/10/10 02:44:06;;;;;;;21.50;10.57;;;21.10;70.60;;;;;;6217971;23;20012;-81
2023/10/10 02:46:35;;;;;;;18.30;10.80;;;21.10;70.50;;;;;;6216691;23;20007;-80
2023/10/10 02:49:29;;;;;;;16.25;10.40;;;21.00;70.40;;;;;;6190452;23;20008;-81
2023/10/10 02:51:55;;;;;;;;;;;21.00;70.80;;;;;;6217806;23;20386;-80
2023/10/10 02:54:43;;;;;;;19.15;11.10;;;21.00;70.80;;;;;;6190076;23;20194;-79
2023/10/10 02:59:51;;;;;;;16.75;11.23;;;20.90;71.30;;;;;;6221655;23;20063;-80
2023/10/10 03:02:29;;;;;;;19.85;11.25;;;20.90;71.30;;;;;;6236457;23;19988;-80
2023/10/10 03:05:06;;;;;;;22.38;12.25;;;20.80;71.20;;;;;;6217859;23;19997;-79
2023/10/10 03:07:35;;;;;;;15.18;10.98;;;20.80;71.30;;;;;;6216129;23;20004;-80
2023/10/10 03:12:37;;;;;;;17.27;11.30;;;20.80;71.50;;;;;;6215851;23;20154;-80
2023/10/10 03:15:27;;;;;;;18.75;10.95;;;20.80;71.60;;;;;;6216637;23;19997;-82
2023/10/10 03:26:04;;;;;;;19.15;11.45;;;20.60;72.10;;;;;;6217145;23;20008;-80
2023/10/10 03:28:33;;;;;;;17.95;10.13;;;20.50;71.70;;;;;;6190240;23;20008;-80
2023/10/10 03:33:43;;;;;;;17.13;10.40;;;20.50;71.30;;;;;;6216248;23;20008;-81
2023/10/10 05:25:08;;;;;;;21.30;10.68;;;19.90;70.20;;;;;;6216949;23;20424;-82
2023/10/10 05:27:41;;;;;;;20.30;10.73;;;20.00;70.10;;;;;;6216448;23;20020;-82
2023/10/10 05:30:17;;;;;;;17.92;10.27;;;20.00;69.80;;;;;;6216057;23;20039;-82
2023/10/10 05:33:00;;;;;;;19.13;9.48;;;20.00;69.80;;;;;;6215775;23;19996;-81
2023/10/10 05:35:27;;;;;;;20.05;9.77;;;20.00;69.70;;;;;;6216015;23;20001;-82
2023/10/10 05:37:54;;;;;;;22.50;10.43;;;20.00;69.90;;;;;;6215684;23;20351;-83
2023/10/10 05:40:20;;;;;;;16.88;9.88;;;20.10;69.80;;;;;;6217537;23;20001;-82
2023/10/10 05:42:46;;;;;;;17.88;10.40;;;20.00;69.40;;;;;;6217508;23;20005;-82
2023/10/10 05:45:13;;;;;;;20.15;10.15;;;20.00;69.70;;;;;;6217273;23;19996;-80
2023/10/10 05:47:40;;;;;;;20.65;10.45;;;20.10;69.50;;;;;;6216232;23;20399;-82
2023/10/10 05:50:10;;;;;;;22.33;10.48;;;20.10;69.50;;;;;;6189849;23;20114;-82
2023/10/10 05:52:39;;;;;;;20.52;10.05;;;20.10;69.50;;;;;;6188758;23;20331;-81
2023/10/10 05:55:06;;;;;;;19.70;10.38;;;20.10;69.40;;;;;;6217951;23;20012;-82
2023/10/10 05:57:34;;;;;;;16.15;10.85;;;20.10;69.30;;;;;;6190728;23;20024;-79
2023/10/10 05:59:59;;;;;;;20.13;10.65;;;20.10;69.40;;;;;;6192460;23;20304;-82
2023/10/10 06:02:27;;;;;;;16.15;11.00;;;20.10;69.30;;;;;;6222902;23;20008;-82
2023/10/10 06:04:53;;;;;;;16.70;10.40;;;20.10;69.20;;;;;;6238368;23;20067;-83
2023/10/10 06:07:20;;;;;;;18.95;10.60;;;20.10;69.40;;;;;;6232322;23;20020;-81
2023/10/10 06:09:51;;;;;;;19.70;11.32;;;20.10;69.70;;;;;;6224259;23;20016;-83
2023/10/10 06:12:19;;;;;;;22.35;11.27;;;20.30;69.50;;;;;;6221875;23;20001;-81
2023/10/10 06:14:46;;;;;;;24.48;11.00;;;20.30;69.00;;;;;;6218026;23;20007;-82
2023/10/10 06:17:13;;;;;;;22.10;11.40;;;20.50;68.80;;;;;;6193706;23;20020;-81
2023/10/10 06:19:38;;;;;;;18.40;10.38;;;20.60;68.50;;;;;;6218081;23;20031;-82
2023/10/10 06:22:08;;;;;;;22.30;10.90;;;20.80;68.20;;;;;;6217021;23;20008;-81
2023/10/10 06:24:35;;;;;;;21.63;10.63;;;20.90;67.80;;;;;;6190315;23;20032;-81
2023/10/10 06:27:00;;;;;;;21.35;10.57;;;21.00;67.50;;;;;;6217878;23;20000;-83
2023/10/10 06:29:29;;;;;;;23.52;10.68;;;21.20;67.20;;;;;;6190247;23;20009;-82
2023/10/10 06:31:56;;;;;;;20.48;9.80;;;21.20;66.80;;;;;;6218258;23;20011;-82
2023/10/10 06:34:23;;;;;;;18.50;9.57;;;21.40;66.70;;;;;;6217979;23;20004;-82
2023/10/10 06:36:50;;;;;;;20.55;9.70;;;21.60;66.30;;;;;;6217905;23;20009;-81
2023/10/10 06:41:46;;;;;;;19.17;10.65;;;21.80;65.40;;;;;;6219040;23;20091;-82
2023/10/10 06:44:17;;;;;;;19.60;9.80;;;21.90;65.40;;;;;;6218283;23;20423;-83
2023/10/10 06:46:47;;;;;;;16.40;9.40;;;22.10;65.20;;;;;;6217243;23;20004;-83
2023/10/10 06:49:14;;;;;;;21.00;10.13;;;22.30;64.80;;;;;;6217891;23;20374;-82
2023/10/10 06:51:39;;;;;;;22.73;10.82;;;22.50;64.50;;;;;;6191145;23;20012;-81
2023/10/10 06:57:16;;;;;;;22.55;9.70;;;22.70;63.60;;;;;;6192829;23;20043;-81
2023/10/10 06:59:42;;;;;;;14.60;9.55;;;22.70;63.50;;;;;;6217454;23;20028;-81
2023/10/10 07:02:20;;;;;;;15.98;9.13;;;22.80;63.10;;;;;;6217912;23;20005;-83
2023/10/10 07:04:52;;;;;;;16.98;9.60;;;22.90;63.20;;;;;;6222457;23;19997;-81
2023/10/10 07:07:22;;;;;;;18.98;8.63;;;22.90;62.90;;;;;;6238025;23;20010;-81
2023/10/10 07:09:57;;;;;;;12.85;8.73;;;23.00;62.90;;;;;;6220470;23;20019;-82
2023/10/10 07:12:24;;;;;;;20.25;9.45;;;23.10;62.60;;;;;;6221993;23;20016;-82
2023/10/10 07:14:54;;;;;;;16.38;9.40;;;23.20;62.30;;;;;;6216974;23;20020;-82
2023/10/10 07:17:26;;;;;;;17.63;9.48;;;23.20;62.50;;;;;;6217539;23;20040;-82
2023/10/10 07:20:54;;;;;;;20.67;8.48;;;23.20;62.70;;;;;;6216910;23;20001;-82
2023/10/10 07:22:42;;;;;;;16.25;10.13;;;23.30;62.20;;;;;;6212609;23;20011;-82
2023/10/10 07:25:31;;;;;;;17.95;9.75;;;23.40;62.10;;;;;;6216329;23;20005;-81
2023/10/10 07:28:00;;;;;;;20.80;8.90;;;23.40;62.30;;;;;;6191683;23;20005;-82
2023/10/10 07:30:33;;;;;;;21.45;9.82;;;23.50;61.90;;;;;;6227163;23;20001;-81
2023/10/10 07:33:02;;;;;;;22.15;9.13;;;23.50;61.80;;;;;;6220994;23;20000;-82
2023/10/10 07:35:28;;;;;;;23.55;10.27;;;23.50;61.90;;;;;;6217546;23;20008;-81
2023/10/10 07:37:58;;;;;;;18.40;9.02;;;23.50;61.80;;;;;;6218384;23;20013;-80
2023/10/10 07:40:31;;;;;;;18.67;9.07;;;23.50;62.00;;;;;;6219876;23;20008;-81
2023/10/10 07:42:59;;;;;;;19.27;8.90;;;23.50;61.60;;;;;;6225249;23;20001;-81
2023/10/10 07:45:44;;;;;;;16.33;9.25;;;23.40;62.10;;;;;;6221580;23;20028;-82
2023/10/10 07:50:49;;;;;;;23.35;10.07;;;23.40;61.90;;;;;;6217353;23;20091;-82
2023/10/10 07:53:17;;;;;;;17.90;9.10;;;23.30;61.50;;;;;;6216710;23;20318;-82
2023/10/10 07:58:27;;;;;;;15.85;10.00;;;23.20;61.30;;;;;;6216184;23;20087;-83
2023/10/10 08:00:53;;;;;;;19.75;8.70;;;23.20;61.70;;;;;;6216100;23;20426;-83
2023/10/10 08:03:22;;;;;;;17.05;8.52;;;23.20;61.50;;;;;;6216706;23;20001;-82
2023/10/10 08:05:50;;;;;;;17.48;8.48;;;23.10;61.20;;;;;;6216440;23;20011;-82
2023/10/10 08:08:17;;;;;;;17.60;8.07;;;23.20;61.80;;;;;;6228834;23;20000;-81
2023/10/10 08:10:49;;;;;;;12.63;7.80;;;23.10;61.30;;;;;;6225004;23;20016;-81
2023/10/10 08:13:15;;;;;;;15.63;7.40;;;23.10;60.90;;;;;;6216627;23;20013;-82
2023/10/10 08:19:08;;;;;;;17.48;8.60;;;23.20;60.90;;;;;;6215752;23;20107;-82
2023/10/10 08:21:11;;;;;;;17.05;8.55;;;23.20;60.50;;;;;;6199729;23;20011;-82
2023/10/10 08:23:42;;;;;;;19.73;8.43;;;23.20;60.50;;;;;;6215682;23;20008;-82
2023/10/10 08:26:18;;;;;;;18.63;8.65;;;23.20;60.60;;;;;;6215970;23;20272;-83
2023/10/10 08:28:48;;;;;;;17.02;8.45;;;23.20;60.10;;;;;;6216664;23;20051;-82
2023/10/10 08:31:14;;;;;;;20.17;7.75;;;23.30;60.00;;;;;;6216578;23;20021;-82
2023/10/10 08:33:44;;;;;;;19.00;8.85;;;23.30;60.10;;;;;;6217285;23;20000;-80
2023/10/10 08:36:12;;;;;;;16.02;8.43;;;23.30;60.30;;;;;;6190721;23;20032;-83
2023/10/10 08:38:42;;;;;;;16.45;8.30;;;23.30;60.10;;;;;;6219130;23;20012;-82
2023/10/10 08:41:09;;;;;;;16.95;8.90;;;23.30;60.00;;;;;;6219904;23;20084;-83
2023/10/10 08:43:40;;;;;;;16.63;9.00;;;23.30;60.10;;;;;;6217337;23;20004;-83
2023/10/10 08:46:09;;;;;;;17.48;8.65;;;23.30;60.40;;;;;;6216929;23;20020;-82
2023/10/10 08:48:36;;;;;;;15.00;8.40;;;23.40;60.30;;;;;;6219904;23;20001;-80
2023/10/10 08:51:04;;;;;;;21.60;8.27;;;23.40;59.80;;;;;;6218002;23;20001;-83
2023/10/10 08:53:38;;;;;;;14.52;7.95;;;23.40;59.50;;;;;;6190787;23;20004;-82
2023/10/10 08:56:04;;;;;;;;;;;23.50;59.50;;;;;;6219212;23;20326;-82
2023/10/10 08:58:32;;;;;;;15.82;7.90;;;23.50;58.90;;;;;;6216351;23;19958;-83
2023/10/10 09:01:01;;;;;;;18.88;9.00;;;23.60;58.80;;;;;;6216129;23;20009;-82
2023/10/10 09:03:28;;;;;;;17.45;8.05;;;23.60;58.80;;;;;;6215948;23;20004;-82
2023/10/10 09:05:55;;;;;;;17.60;8.20;;;23.70;58.80;;;;;;6217347;23;20382;-84
2023/10/10 09:08:26;;;;;;;16.70;8.07;;;23.70;58.80;;;;;;6230859;23;20008;-81
2023/10/10 09:10:56;;;;;;;17.40;8.02;;;23.70;58.70;;;;;;6225192;23;20015;-82
2023/10/10 09:13:25;;;;;;;21.38;8.13;;;23.80;58.70;;;;;;6215150;23;20067;-82
2023/10/10 09:15:55;;;;;;;22.55;8.15;;;23.80;58.70;;;;;;6216004;23;20028;-83
2023/10/10 09:18:22;;;;;;;13.88;8.50;;;23.90;58.50;;;;;;6188433;23;20370;-82
2023/10/10 09:20:50;;;;;;;13.75;7.35;;;23.90;58.50;;;;;;6189550;23;20390;-81
2023/10/10 09:23:23;;;;;;;17.30;7.32;;;24.00;58.40;;;;;;6215815;23;20004;-84
2023/10/10 09:26:29;;;;;;;15.80;8.52;;;24.10;57.90;;;;;;6189117;23;20005;-82
2023/10/10 09:29:15;;;;;;;15.52;7.60;;;24.10;58.10;;;;;;6199503;23;20004;-83
2023/10/10 09:31:45;;;;;;;17.30;8.05;;;24.20;57.90;;;;;;6221910;23;20430;-83
2023/10/10 09:34:12;;;;;;;20.23;8.55;;;24.30;57.80;;;;;;6219421;23;20015;-84
2023/10/10 09:36:50;;;;;;;13.70;7.50;;;24.40;57.50;;;;;;6217585;23;20001;-82
2023/10/10 09:39:37;;;;;;;19.05;7.07;;;24.50;57.10;;;;;;6215827;23;20011;-82
2023/10/10 09:47:56;;;;;;;16.70;7.60;;;24.80;56.30;;;;;;6186531;23;20063;-84
2023/10/10 09:52:53;;;;;;;17.27;6.72;;;25.00;55.10;;;;;;6216148;23;20040;-83
2023/10/10 10:09:08;;;;;;;12.40;6.65;;;25.50;52.70;;;;;;6214126;23;20057;-80
2023/10/10 10:11:48;;;;;;;13.98;6.78;;;25.60;52.20;;;;;;6224747;23;20021;-82
2023/10/10 10:14:48;;;;;;;13.80;6.28;;;25.70;50.60;;;;;;6190034;23;20012;-82
2023/10/10 10:17:18;;;;;;;10.90;5.80;;;25.90;49.40;;;;;;6216098;23;20008;-83
2023/10/10 10:19:45;;;;;;;13.93;6.28;;;26.00;50.00;;;;;;6225517;23;20000;-82
2023/10/10 10:22:17;;;;;;;11.55;5.60;;;26.10;49.30;;;;;;6215436;23;20005;-81
2023/10/10 10:24:46;;;;;;;19.23;6.88;;;26.20;49.30;;;;;;6214798;23;20457;-82
2023/10/10 10:27:34;;;;;;;13.25;6.35;;;26.30;47.50;;;;;;6214779;23;20011;-81
2023/10/10 10:32:47;;;;;;;15.88;6.88;;;26.50;47.20;;;;;;6215602;23;20009;-83
2023/10/10 10:35:21;;;;;;;12.65;5.88;;;26.60;47.50;;;;;;6215358;23;20001;-82
2023/10/10 10:37:55;;;;;;;21.00;6.57;;;26.70;47.20;;;;;;6215053;23;20372;-82
2023/10/10 10:40:41;;;;;;;11.02;5.60;;;26.80;46.60;;;;;;6188269;23;20016;-85
2023/10/10 10:43:16;;;;;;;13.25;6.03;;;26.90;46.50;;;;;;6215348;23;20013;-82
2023/10/10 10:45:51;;;;;;;14.38;6.00;;;27.10;45.00;;;;;;6216942;23;20331;-82
2023/10/10 10:48:30;;;;;;;16.40;5.80;;;27.10;45.00;;;;;;6189689;23;20367;-82
2023/10/10 10:51:22;;;;;;;12.60;5.80;;;27.20;44.90;;;;;;6216804;23;20092;-85
2023/10/10 10:53:58;;;;;;;11.35;6.05;;;27.30;44.80;;;;;;6216970;23;19997;-82
2023/10/10 10:59:12;;;;;;;9.65;5.60;;;27.50;44.20;;;;;;6217372;23;20064;-83
2023/10/10 11:01:59;;;;;;;18.45;6.20;;;27.50;43.40;;;;;;6217036;23;20071;-83
2023/10/10 11:04:42;;;;;;;10.27;5.82;;;27.60;44.20;;;;;;6216321;23;20036;-81
2023/10/10 11:07:08;;;;;;;;;;;27.60;44.30;;;;;;6218961;23;19997;-82
2023/10/10 11:09:43;;;;;;;9.77;5.13;;;27.70;43.40;;;;;;6226929;23;19915;-81
2023/10/10 11:12:09;;;;;;;7.63;4.50;;;27.80;41.90;;;;;;6227555;23;20020;-82
2023/10/10 11:14:44;;;;;;;9.43;4.32;;;28.00;40.10;;;;;;6216063;23;20391;-83
2023/10/10 11:17:17;;;;;;;7.65;4.05;;;28.00;39.30;;;;;;6217099;23;20040;-84
2023/10/10 11:19:43;;;;;;;;;;;28.10;37.80;;;;;;6201033;23;20005;-82
2023/10/10 11:24:57;;;;;;;8.77;4.13;;;28.30;38.80;;;;;;6216569;23;20024;-83
2023/10/10 11:27:29;;;;;;;8.68;4.50;;;28.40;38.40;;;;;;6216269;23;19997;-82
2023/10/10 11:30:00;;;;;;;11.70;4.90;;;28.50;38.30;;;;;;6215887;23;20012;-82
2023/10/10 11:32:36;;;;;;;8.43;4.68;;;28.50;37.50;;;;;;6215902;23;20013;-82
2023/10/10 11:35:22;;;;;;;9.68;5.13;;;28.60;37.20;;;;;;6216437;23;20000;-82
2023/10/10 11:37:58;;;;;;;13.07;5.28;;;28.70;37.70;;;;;;6215744;23;20044;-82
2023/10/10 11:43:11;;;;;;;10.57;5.40;;;28.90;36.70;;;;;;6222571;23;20005;-83
2023/10/10 11:45:50;;;;;;;;;;;29.00;36.90;;;;;;6193122;23;20008;-83
2023/10/10 11:48:16;;;;;;;11.25;5.00;;;29.00;37.50;;;;;;6236037;23;19899;-83
2023/10/10 11:50:50;;;;;;;10.95;5.20;;;29.10;37.30;;;;;;6225645;23;20358;-82
2023/10/10 11:53:23;;;;;;;11.88;5.85;;;29.20;36.60;;;;;;6215762;23;20411;-83
2023/10/10 11:55:52;;;;;;;;;;;29.20;36.80;;;;;;6215704;23;20339;-79
2023/10/10 11:58:18;;;;;;;12.32;5.18;;;29.30;36.50;;;;;;6216030;23;19908;-82
2023/10/10 12:01:03;;;;;;;8.55;5.20;;;29.30;37.60;;;;;;6216133;23;20007;-81
2023/10/10 12:06:05;;;;;;;10.38;5.75;;;29.40;37.40;;;;;;6217409;23;20036;-84
2023/10/10 12:08:31;;;;;;;11.88;5.68;;;29.50;37.20;;;;;;6219640;23;20368;-82
2023/10/10 12:11:06;;;;;;;9.95;5.63;;;29.50;36.90;;;;;;6237941;23;20011;-82
2023/10/10 12:15:58;;;;;;;11.40;5.53;;;29.60;36.00;;;;;;6217614;23;20339;-82
2023/10/10 12:18:31;;;;;;;10.45;5.18;;;29.60;36.20;;;;;;6215657;23;20015;-82
2023/10/10 12:21:01;;;;;;;12.38;6.20;;;29.70;35.90;;;;;;6215482;23;20003;-83
2023/10/10 12:23:30;;;;;;;9.93;5.40;;;29.80;35.70;;;;;;6215892;23;20027;-83
2023/10/10 12:25:55;;;;;;;12.90;6.50;;;29.80;35.90;;;;;;6215388;23;20434;-83
2023/10/10 12:28:21;;;;;;;16.02;6.47;;;29.80;37.60;;;;;;6215902;23;20004;-83
2023/10/10 12:30:47;;;;;;;17.85;6.78;;;29.80;39.50;;;;;;6215776;23;20011;-84
2023/10/10 12:33:15;;;;;;;11.95;6.40;;;29.80;40.90;;;;;;6215951;23;20000;-82
2023/10/10 12:35:47;;;;;;;14.40;6.65;;;29.80;42.10;;;;;;6217533;23;20402;-83
2023/10/10 12:38:20;;;;;;;19.83;6.63;;;29.80;43.20;;;;;;6189231;23;20017;-81
2023/10/10 12:40:56;;;;;;;15.30;7.13;;;29.80;43.90;;;;;;6215544;23;20028;-83
2023/10/10 12:43:25;;;;;;;10.35;6.18;;;29.80;43.20;;;;;;6215348;23;20059;-82
2023/10/10 12:45:54;;;;;;;13.52;6.25;;;29.80;44.10;;;;;;6215609;23;20041;-81
2023/10/10 12:48:20;;;;;;;13.85;6.10;;;29.80;44.80;;;;;;6216137;23;19996;-84
2023/10/10 12:50:50;;;;;;;10.98;5.78;;;29.70;44.80;;;;;;6216062;23;20005;-83
2023/10/10 12:53:19;;;;;;;11.23;5.80;;;29.80;44.50;;;;;;6216243;23;20001;-84
2023/10/10 12:55:48;;;;;;;11.88;5.55;;;29.80;44.40;;;;;;6215996;23;20071;-83
2023/10/10 12:58:20;;;;;;;11.07;5.65;;;29.80;44.20;;;;;;6216235;23;20488;-82
2023/10/10 13:00:50;;;;;;;10.05;5.50;;;29.80;43.50;;;;;;6215788;23;20327;-83
2023/10/10 13:03:23;;;;;;;13.25;6.25;;;29.80;43.10;;;;;;6216212;23;20012;-83
2023/10/10 13:05:52;;;;;;;9.75;6.07;;;29.80;43.20;;;;;;6216740;23;19996;-82
2023/10/10 13:08:24;;;;;;;13.43;5.47;;;29.80;43.10;;;;;;6232146;23;20056;-82
2023/10/10 13:10:55;;;;;;;11.30;5.75;;;29.80;43.10;;;;;;6232206;23;20311;-83
2023/10/10 13:13:27;;;;;;;12.10;6.28;;;29.80;42.70;;;;;;6215913;23;20012;-82
2023/10/10 13:16:22;;;;;;;15.10;5.75;;;29.90;41.40;;;;;;6215299;23;20001;-83
2023/10/10 13:18:52;;;;;;;13.45;5.40;;;29.90;41.40;;;;;;6215863;23;20020;-83
2023/10/10 13:21:21;;;;;;;11.95;5.68;;;30.00;41.10;;;;;;6217377;23;20004;-83
2023/10/10 13:23:50;;;;;;;9.45;5.18;;;30.00;41.70;;;;;;6226741;23;20028;-80
2023/10/10 13:26:17;;;;;;;10.73;4.85;;;30.00;41.50;;;;;;6217129;23;19996;-83
2023/10/10 13:28:46;;;;;;;15.88;5.82;;;30.00;41.10;;;;;;6216049;23;19996;-82
2023/10/10 13:31:19;;;;;;;9.25;5.00;;;30.00;40.80;;;;;;6215384;23;20027;-83
2023/10/10 13:33:45;;;;;;;13.52;5.43;;;30.10;41.00;;;;;;6215866;23;20335;-83
2023/10/10 13:36:12;;;;;;;13.70;5.18;;;30.00;41.00;;;;;;6215169;23;20012;-81
2023/10/10 13:38:53;;;;;;;14.20;5.80;;;30.10;40.90;;;;;;6215204;23;20009;-81
2023/10/10 13:41:22;;;;;;;12.60;4.93;;;30.10;40.70;;;;;;6215820;23;19997;-81
2023/10/10 13:43:52;;;;;;;10.75;4.75;;;30.10;40.90;;;;;;6215867;23;20335;-84
2023/10/10 13:46:20;;;;;;;10.43;4.57;;;30.20;40.70;;;;;;6215498;23;19997;-83
2023/10/10 13:48:47;;;;;;;9.70;5.20;;;30.20;40.80;;;;;;6216699;23;19996;-83
2023/10/10 13:51:14;;;;;;;13.82;5.30;;;30.20;40.70;;;;;;6216462;23;20005;-81
2023/10/10 13:53:44;;;;;;;11.65;5.70;;;30.30;40.30;;;;;;6215604;23;20067;-80
2023/10/10 13:56:13;;;;;;;13.93;5.70;;;30.30;40.50;;;;;;6215877;23;20016;-82
2023/10/10 13:58:46;;;;;;;11.80;5.32;;;30.30;39.80;;;;;;6215474;23;20024;-81
2023/10/10 14:01:18;;;;;;;11.27;5.30;;;30.30;39.70;;;;;;6216142;23;19996;-81
2023/10/10 14:03:48;;;;;;;11.25;5.25;;;30.40;39.20;;;;;;6218167;23;20503;-82
2023/10/10 14:06:34;;;;;;;11.00;4.78;;;30.40;39.60;;;;;;6233221;23;20050;-83
2023/10/10 14:09:00;;;;;;;14.15;5.40;;;30.40;39.50;;;;;;6224287;23;20031;-82
2023/10/10 14:11:26;;;;;;;9.95;5.35;;;30.40;39.30;;;;;;6215809;23;20411;-82
2023/10/10 14:13:53;;;;;;;9.43;4.60;;;30.40;38.80;;;;;;6215643;23;20020;-82
2023/10/10 14:16:20;;;;;;;14.57;5.00;;;30.40;38.80;;;;;;6215761;23;20084;-83
2023/10/10 14:18:52;;;;;;;17.70;7.00;;;30.40;38.50;;;;;;6216636;23;20009;-82
2023/10/10 14:21:25;;;;;;;20.40;5.50;;;30.40;38.70;;;;;;6190969;23;20277;-83
2023/10/10 14:24:03;;;;;;;12.52;4.85;;;30.40;38.80;;;;;;6217760;23;20064;-82
2023/10/10 14:26:33;;;;;;;10.05;5.40;;;30.40;39.00;;;;;;6217813;23;20075;-82
2023/10/10 14:29:05;;;;;;;12.95;5.35;;;30.40;39.00;;;;;;6216819;23;20407;-82
2023/10/10 14:31:33;;;;;;;8.57;4.70;;;30.30;38.70;;;;;;6224683;23;20059;-82
2023/10/10 14:34:03;;;;;;;14.27;4.90;;;30.30;39.20;;;;;;6217705;23;20001;-83
2023/10/10 14:36:39;;;;;;;8.45;5.00;;;30.30;39.20;;;;;;6216855;23;20071;-83
2023/10/10 14:39:08;;;;;;;18.05;4.88;;;30.20;39.30;;;;;;6216906;23;20025;-81
2023/10/10 14:41:34;;;;;;;10.80;4.57;;;30.20;39.30;;;;;;6216897;23;20469;-83
2023/10/10 14:44:01;;;;;;;10.38;5.22;;;30.20;39.10;;;;;;6216415;23;20088;-82
2023/10/10 14:46:31;;;;;;;13.35;4.90;;;30.20;39.30;;;;;;6217278;23;20003;-81
2023/10/10 14:49:05;;;;;;;11.57;4.63;;;30.20;39.50;;;;;;6217927;23;20011;-82
2023/10/10 14:51:35;;;;;;;12.70;4.45;;;30.20;39.70;;;;;;6190597;23;20011;-82
2023/10/10 14:54:11;;;;;;;11.25;4.55;;;30.20;39.90;;;;;;6217333;23;20001;-84
2023/10/10 14:56:39;;;;;;;11.77;4.63;;;30.10;39.10;;;;;;6217300;23;20001;-81
2023/10/10 14:59:10;;;;;;;14.52;4.85;;;30.10;39.90;;;;;;6217167;23;20012;-82
2023/10/10 15:01:36;;;;;;;10.32;5.00;;;30.10;39.80;;;;;;6218041;23;20060;-81
2023/10/10 15:04:03;;;;;;;9.75;4.30;;;30.00;39.70;;;;;;6231265;23;20056;-80
2023/10/10 15:06:29;;;;;;;14.70;5.10;;;30.00;39.90;;;;;;6230711;23;20005;-82
2023/10/10 15:08:55;;;;;;;11.43;4.75;;;30.00;40.00;;;;;;6217255;23;20017;-81
2023/10/10 15:11:23;;;;;;;13.30;4.50;;;29.90;39.70;;;;;;6217291;23;20342;-83
2023/10/10 15:13:49;;;;;;;12.10;4.57;;;29.90;40.60;;;;;;6216730;23;20051;-82
2023/10/10 15:16:16;;;;;;;10.18;4.47;;;29.80;40.80;;;;;;6216555;23;20380;-82
2023/10/10 15:18:41;;;;;;;14.00;4.72;;;29.80;41.40;;;;;;6216465;23;20031;-83
2023/10/10 15:21:07;;;;;;;13.73;4.65;;;29.70;41.60;;;;;;6216617;23;20427;-82
2023/10/10 15:23:33;;;;;;;9.27;4.63;;;29.60;41.90;;;;;;6216195;23;20019;-84
2023/10/10 15:26:05;;;;;;;10.88;4.65;;;29.50;41.90;;;;;;6216844;23;20001;-82
2023/10/10 15:28:31;;;;;;;9.40;4.10;;;29.50;42.30;;;;;;6216600;23;20047;-83
2023/10/10 15:30:57;;;;;;;10.90;4.25;;;29.40;42.60;;;;;;6216694;23;20411;-82
2023/10/10 15:33:25;;;;;;;10.70;3.85;;;29.30;42.80;;;;;;6216724;23;20446;-81
2023/10/10 15:35:52;;;;;;;14.40;5.70;;;29.30;43.00;;;;;;6216675;23;20039;-82
2023/10/10 15:38:19;;;;;;;12.55;5.20;;;29.20;42.90;;;;;;6216477;23;20430;-83
2023/10/10 15:40:45;;;;;;;10.27;4.55;;;29.10;43.40;;;;;;6215841;23;20059;-83
2023/10/10 15:43:11;;;;;;;7.72;3.90;;;29.10;43.40;;;;;;6216596;23;20088;-83
2023/10/10 15:45:44;;;;;;;17.33;4.20;;;29.00;43.30;;;;;;6217149;23;20000;-82
2023/10/10 15:48:22;;;;;;;;;;;28.90;43.40;;;;;;6217326;23;20008;-83
2023/10/10 15:50:51;;;;;;;12.48;4.38;;;28.80;43.00;;;;;;6218266;23;19995;-83
2023/10/10 15:53:21;;;;;;;7.72;3.92;;;28.80;43.50;;;;;;6221844;23;20043;-82
2023/10/10 15:56:07;;;;;;;16.02;4.60;;;28.70;42.00;;;;;;6222625;23;20075;-83
2023/10/10 15:58:55;;;;;;;12.65;4.57;;;28.70;43.10;;;;;;6220430;23;20171;-82
2023/10/10 16:01:28;;;;;;;10.38;4.38;;;28.60;43.20;;;;;;6222902;23;20088;-83
2023/10/10 16:03:59;;;;;;;13.18;4.57;;;28.60;42.20;;;;;;6236196;23;20016;-82
2023/10/10 16:06:27;;;;;;;13.60;4.03;;;28.50;43.20;;;;;;6218751;23;19997;-83